createdAt,value
2022-10-18T00:01:29.717Z,22.14
2022-10-18T00:11:15.325Z,22.13
2022-10-18T00:16:08.050Z,22.13
2022-10-18T00:21:00.678Z,22.12
2022-10-18T00:25:52.802Z,22.12
2022-10-18T00:30:45.506Z,22.11
2022-10-18T00:35:38.021Z,22.1
2022-10-18T00:40:30.822Z,22.09
2022-10-18T00:45:23.633Z,22.09
2022-10-18T00:50:16.243Z,22.08
2022-10-18T00:55:08.941Z,22.07
2022-10-18T01:00:03.305Z,22.09
2022-10-18T01:04:55.643Z,22.07
2022-10-18T01:09:48.211Z,22.05
2022-10-18T01:14:40.737Z,22.04
2022-10-18T01:19:33.415Z,22.04
2022-10-18T01:24:26.073Z,22.04
2022-10-18T01:29:18.663Z,22.03
2022-10-18T01:34:11.247Z,22.03
2022-10-18T01:39:03.937Z,22.01
2022-10-18T01:43:56.581Z,22.01
2022-10-18T01:48:49.110Z,22.01
2022-10-18T01:53:41.718Z,22
2022-10-18T01:58:34.349Z,21.99
2022-10-18T02:03:26.979Z,21.99
2022-10-18T02:08:23.072Z,21.98
2022-10-18T02:13:12.487Z,21.98
2022-10-18T02:18:04.832Z,21.97
2022-10-18T02:22:57.526Z,21.96
2022-10-18T02:27:50.100Z,21.97
2022-10-18T02:32:42.649Z,21.96
2022-10-18T02:37:35.248Z,21.96
2022-10-18T02:42:27.554Z,21.95
2022-10-18T02:47:20.234Z,21.95
2022-10-18T02:52:12.956Z,21.93
2022-10-18T02:57:05.611Z,21.93
2022-10-18T03:01:58.198Z,21.92
2022-10-18T03:06:50.824Z,21.91
2022-10-18T03:11:43.660Z,21.91
2022-10-18T03:16:36.301Z,21.91
2022-10-18T03:21:28.921Z,21.9
2022-10-18T03:26:21.409Z,21.9
2022-10-18T03:31:14.117Z,21.9
2022-10-18T03:36:06.669Z,21.9
2022-10-18T03:40:59.303Z,21.89
2022-10-18T03:45:51.903Z,21.88
2022-10-18T03:50:44.481Z,21.87
2022-10-18T03:55:37.233Z,21.88
2022-10-18T04:00:29.732Z,21.87
2022-10-18T04:05:22.405Z,21.89
2022-10-18T04:10:15.004Z,21.88
2022-10-18T04:15:07.879Z,21.91
2022-10-18T04:20:00.522Z,21.89
2022-10-18T04:24:53.230Z,21.87
2022-10-18T04:29:46.032Z,21.87
2022-10-18T04:34:38.772Z,21.88
2022-10-18T04:39:31.231Z,21.87
2022-10-18T04:44:23.910Z,21.93
2022-10-18T04:49:16.968Z,22.24
2022-10-18T04:54:09.700Z,22.33
2022-10-18T04:59:02.471Z,22.41
2022-10-18T05:03:55.321Z,22.49
2022-10-18T05:08:48.059Z,22.53
2022-10-18T05:13:40.917Z,22.6
2022-10-18T05:18:33.565Z,22.62
2022-10-18T05:23:26.166Z,22.64
2022-10-18T05:28:38.525Z,22.73
2022-10-18T05:38:04.247Z,22.66
2022-10-18T05:42:57.194Z,22.86
2022-10-18T05:47:50.014Z,22.89
2022-10-18T05:52:42.792Z,22.96
2022-10-18T05:57:35.529Z,22.97
2022-10-18T06:02:27.614Z,22.66
2022-10-18T06:07:20.025Z,22.64
2022-10-18T06:12:12.645Z,22.6
2022-10-18T06:17:05.032Z,22.63
2022-10-18T06:21:57.658Z,22.63
2022-10-18T06:26:50.336Z,22.53
2022-10-18T06:31:43.050Z,22.47
2022-10-18T06:36:35.599Z,22.46
2022-10-18T06:41:28.330Z,22.45
2022-10-18T06:46:20.966Z,22.43
2022-10-18T06:51:13.553Z,22.41
2022-10-18T06:56:06.275Z,22.41
2022-10-18T07:00:59.106Z,22.35
2022-10-18T07:05:51.626Z,22.35
2022-10-18T07:10:44.230Z,22.31
2022-10-18T07:15:36.924Z,22.32
2022-10-18T07:20:29.641Z,22.28
2022-10-18T07:25:23.198Z,22.23
2022-10-18T07:30:15.053Z,22.21
2022-10-18T07:35:07.655Z,22.21
2022-10-18T07:40:00.392Z,22.17
2022-10-18T07:44:52.965Z,22.14
2022-10-18T07:49:45.605Z,22.12
2022-10-18T07:54:38.278Z,22.1
2022-10-18T07:59:30.897Z,22.08
2022-10-18T08:04:23.926Z,22.03
2022-10-18T08:09:16.766Z,22.03
2022-10-18T08:14:09.377Z,22.01
2022-10-18T08:19:02.131Z,21.99
2022-10-18T08:23:54.194Z,21.98
2022-10-18T08:28:53.454Z,21.99
2022-10-18T08:33:39.604Z,21.97
2022-10-18T08:38:32.270Z,21.95
2022-10-18T08:43:25.028Z,21.96
2022-10-18T08:48:17.879Z,21.97
2022-10-18T08:53:10.557Z,21.94
2022-10-18T08:58:03.171Z,21.93
2022-10-18T09:02:55.393Z,21.93
2022-10-18T09:07:47.675Z,21.92
2022-10-18T09:12:40.259Z,21.91
2022-10-18T09:17:32.811Z,21.92
2022-10-18T09:22:25.417Z,21.92
2022-10-18T09:27:18.073Z,21.92
2022-10-18T09:32:10.597Z,21.9
2022-10-18T09:37:03.312Z,21.9
2022-10-18T09:41:56.054Z,21.88
2022-10-18T09:46:48.784Z,21.88
2022-10-18T09:51:41.482Z,21.89
2022-10-18T09:56:37.890Z,21.87
2022-10-18T10:01:26.820Z,21.88
2022-10-18T10:06:19.542Z,21.88
2022-10-18T10:11:12.118Z,21.87
2022-10-18T10:16:04.792Z,21.87
2022-10-18T10:20:57.507Z,21.88
2022-10-18T10:25:50.265Z,21.87
2022-10-18T10:30:42.652Z,21.86
2022-10-18T10:35:53.352Z,21.86
2022-10-18T10:40:28.748Z,21.85
2022-10-18T10:45:20.593Z,21.84
2022-10-18T10:50:13.689Z,21.85
2022-10-18T10:55:23.461Z,21.84
2022-10-18T10:59:58.813Z,21.84
2022-10-18T11:04:51.557Z,21.84
2022-10-18T11:09:44.372Z,21.83
2022-10-18T11:14:36.879Z,21.82
2022-10-18T11:19:29.631Z,21.82
2022-10-18T11:24:22.433Z,21.82
2022-10-18T11:34:09.468Z,21.81
2022-10-18T11:44:02.057Z,21.8
2022-10-18T11:48:45.167Z,21.8
2022-10-18T11:53:37.803Z,21.8
2022-10-18T11:58:30.570Z,21.79
2022-10-18T12:03:23.366Z,21.77
2022-10-18T12:08:16.048Z,21.78
2022-10-18T12:13:08.474Z,21.78
2022-10-18T12:18:01.235Z,21.77
2022-10-18T12:22:54.018Z,21.76
2022-10-18T12:27:46.625Z,21.78
2022-10-18T12:32:39.392Z,21.78
2022-10-18T12:37:32.301Z,21.77
2022-10-18T12:42:24.757Z,21.77
2022-10-18T12:47:17.308Z,21.77
2022-10-18T12:52:09.866Z,21.76
2022-10-18T12:57:02.312Z,21.77
2022-10-18T13:01:55.452Z,21.77
2022-10-18T13:06:47.762Z,21.77
2022-10-18T13:11:40.403Z,21.77
2022-10-18T13:16:33.080Z,21.76
2022-10-18T13:21:25.672Z,21.77
2022-10-18T13:26:18.277Z,21.78
2022-10-18T13:31:10.977Z,21.77
2022-10-18T13:36:03.511Z,21.78
2022-10-18T13:40:56.447Z,21.77
2022-10-18T13:45:49.130Z,21.76
2022-10-18T13:50:41.752Z,21.77
2022-10-18T13:55:34.328Z,21.77
2022-10-18T14:00:26.891Z,21.81
2022-10-18T14:05:24.407Z,21.84
2022-10-18T14:10:07.650Z,21.87
2022-10-18T14:15:01.463Z,21.82
2022-10-18T14:19:54.137Z,21.79
2022-10-18T14:24:40.753Z,21.78
2022-10-18T14:29:36.011Z,21.77
2022-10-18T14:34:23.131Z,21.77
2022-10-18T14:39:17.157Z,21.77
2022-10-18T14:44:10.463Z,21.75
2022-10-18T14:49:05.282Z,21.78
2022-10-18T14:53:57.632Z,21.79
2022-10-18T14:58:50.399Z,21.78
2022-10-18T15:03:42.951Z,21.8
2022-10-18T15:08:35.507Z,21.8
2022-10-18T15:13:22.368Z,21.8
2022-10-18T15:18:16.049Z,21.78
2022-10-18T15:23:09.559Z,21.75
2022-10-18T15:28:02.178Z,21.78
2022-10-18T15:32:56.893Z,21.79
2022-10-18T15:37:49.224Z,21.79
2022-10-18T15:42:42.183Z,21.81
2022-10-18T15:47:34.942Z,21.81
2022-10-18T15:52:21.849Z,21.82
2022-10-18T15:57:15.419Z,21.81
2022-10-18T16:02:09.248Z,21.82
2022-10-18T16:07:02.021Z,21.82
2022-10-18T16:11:57.152Z,21.82
2022-10-18T16:16:47.916Z,21.8
2022-10-18T16:21:40.507Z,21.84
2022-10-18T16:26:33.371Z,21.84
2022-10-18T16:31:26.025Z,21.85
2022-10-18T16:36:18.423Z,21.85
2022-10-18T16:41:11.104Z,21.86
2022-10-18T16:46:03.759Z,21.86
2022-10-18T16:50:56.350Z,21.86
2022-10-18T16:55:48.980Z,21.85
2022-10-18T17:00:41.648Z,21.87
2022-10-18T17:05:28.515Z,21.87
2022-10-18T17:10:22.186Z,21.88
2022-10-18T17:15:15.833Z,21.88
2022-10-18T17:20:08.583Z,21.87
2022-10-18T17:25:01.292Z,21.87
2022-10-18T17:29:53.767Z,21.87
2022-10-18T17:34:46.060Z,21.86
2022-10-18T17:39:38.668Z,21.88
2022-10-18T17:44:25.515Z,21.88
2022-10-18T17:49:19.208Z,21.86
2022-10-18T17:59:05.450Z,21.89
2022-10-18T18:03:58.211Z,21.88
2022-10-18T18:08:50.803Z,21.89
2022-10-18T18:13:43.489Z,21.89
2022-10-18T18:18:36.347Z,21.88
2022-10-18T18:23:29.122Z,21.88
2022-10-18T18:28:23.852Z,21.89
2022-10-18T18:33:16.306Z,21.87
2022-10-18T18:38:08.750Z,21.88
2022-10-18T18:43:12.290Z,21.88
2022-10-18T18:47:54.232Z,21.89
2022-10-18T18:52:46.888Z,21.89
2022-10-18T18:57:39.204Z,21.87
2022-10-18T19:02:31.772Z,21.88
2022-10-18T19:07:24.395Z,21.89
2022-10-18T19:12:19.111Z,21.86
2022-10-18T19:17:09.789Z,21.85
2022-10-18T19:22:02.299Z,21.86
2022-10-18T19:26:54.908Z,21.85
2022-10-18T19:31:47.498Z,21.84
2022-10-18T19:36:40.163Z,21.85
2022-10-18T19:41:32.905Z,21.85
2022-10-18T19:46:25.961Z,21.88
2022-10-18T19:51:20.966Z,21.86
2022-10-18T19:56:11.583Z,21.84
2022-10-18T20:01:04.334Z,21.82
2022-10-18T20:05:56.911Z,21.81
2022-10-18T20:10:49.546Z,21.82
2022-10-18T20:15:42.128Z,21.8
2022-10-18T20:20:34.793Z,21.8
2022-10-18T20:25:21.774Z,21.79
2022-10-18T20:30:15.327Z,21.78
2022-10-18T20:35:09.173Z,21.77
2022-10-18T20:40:03.786Z,21.77
2022-10-18T20:44:50.412Z,21.76
2022-10-18T20:49:43.918Z,21.74
2022-10-18T20:54:37.693Z,21.74
2022-10-18T20:59:30.067Z,21.72
2022-10-18T21:04:22.543Z,21.72
2022-10-18T21:09:15.221Z,21.7
2022-10-18T21:14:08.004Z,21.69
2022-10-18T21:19:00.177Z,21.7
2022-10-18T21:23:52.668Z,21.68
2022-10-18T21:28:45.449Z,21.68
2022-10-18T21:33:38.028Z,21.65
2022-10-18T21:38:30.544Z,21.65
2022-10-18T21:43:25.195Z,21.65
2022-10-18T21:48:17.246Z,21.65
2022-10-18T21:53:09.879Z,21.64
2022-10-18T21:58:02.401Z,21.65
2022-10-18T22:02:55.297Z,21.63
2022-10-18T22:07:47.775Z,21.63
2022-10-18T22:12:40.928Z,21.61
2022-10-18T22:17:33.652Z,21.61
2022-10-18T22:22:26.146Z,21.61
2022-10-18T22:27:18.765Z,21.6
2022-10-18T22:32:11.095Z,21.62
2022-10-18T22:37:03.527Z,21.6
2022-10-18T22:41:58.355Z,21.6
2022-10-18T22:46:50.629Z,21.58
2022-10-18T22:51:43.172Z,21.59
2022-10-18T22:56:35.673Z,21.58
2022-10-18T23:01:28.435Z,21.58
2022-10-18T23:06:20.978Z,21.58
2022-10-18T23:11:13.696Z,21.58
2022-10-18T23:16:06.380Z,21.57
2022-10-18T23:20:58.965Z,21.57
2022-10-18T23:25:51.736Z,21.56
2022-10-18T23:35:36.796Z,21.55
2022-10-18T23:40:29.500Z,21.55
2022-10-18T23:45:24.030Z,21.53
2022-10-18T23:50:16.333Z,21.53
2022-10-18T23:55:08.569Z,21.53
